Crawford, CO (81415)

7:58 AM MDT on August 31, 2015 (GMT -0600)
KCOCRAWF5 | | Change Station
CLOSE
Current Station
Personal Weather Station
Location: Crawford, CO
Elevation: 6896 ft
Nearby Weather Stations

Elev 6896 ft 38.73 °N, 107.57 °W | Updated 1 minute ago

Overcast
Overcast
58.2 °F
Feels Like 58.2 °F
N
0.0
Wind Variable Wind from ESE
Gusts 0.0 mph

Today
High -- | Low -- °F
--% Chance of Precip.
Yesterday
High -- | Low -- °F
Precip. -- in
6:38 AM 7:42 PM
Waning Gibbous, 95% visible
Pressure 30.00 in
Visibility 10.0 miles
Clouds Mostly Cloudy 10000 ft
Dew Point 51 °F
Humidity 76%
Rainfall 0.00 in
Snow Depth Not available.
UV 0 out of 12
Pollen 8.80 out of 12
Air Quality Not available.
Flu Activity Not available.
METAR KMTJ 311253Z AUTO 00000KT 10SM BKN100 14/13 A3021 RMK AO2 SLP158 T01440128
Pressure 30.00 in
Visibility 10.0 miles
Clouds Mostly Cloudy 10000 ft
Dew Point 51 °F
Humidity 76%
Rainfall 0.00 in
Snow Depth Not available.
UV 0 out of 12
Pollen 8.80 out of 12
Air Quality Not available.
Flu Activity Not available.
METAR KMTJ 311253Z AUTO 00000KT 10SM BKN100 14/13 A3021 RMK AO2 SLP158 T01440128

10-Day Weather Forecast

×

Almanac

Astronomy

Aug. 31, 2015 Rise Set
Actual Time
Civil Twilight
Nautical Twilight
Astronomical Twilight
Moon
Length of Visible Light
Length of Day
Tomorrow will be .
, % of the Moon is Illuminated

Today's Extremes

State Highs State Lows

Community

WunderPhotos

Upload Photos

1,851,240 photos uploaded!

WunderBlogs® & News

Nearby

Air Quality

  Air Quality AQ Index Pollutant
Not available.

Snow Depth

Station Depth Elevation

Earthquake Activity

City Distance Mag. Time & Date
Minimum magnitude displayed is 2.5.

Coastal Water Temperatures

Place Temperature

Stations

Nearby Weather Stations

Station Location Temp. Windchill Dew Point Humidity Wind Precip. Elev Updated Type